Estación de El Cardal INIA

Ultimos registro cada 15 minutos 63
Estación Fecha / Hora Temperatura Humedad Lluvia Velocidad Dirección Radiación Presion
63 El Cardal INIA 05-05-2026 15:30 12,9 95,6 0 2,8 46 60 997
62 El Cardal INIA 05-05-2026 15:15 12,7 95,8 0 2,6 43 54 997
61 El Cardal INIA 05-05-2026 15:00 12,6 96 0,5 2,8 40 56 997
60 El Cardal INIA 05-05-2026 14:45 12,5 96,5 1 2,4 43 57 998
59 El Cardal INIA 05-05-2026 14:30 12,2 96,9 0,9 2,4 53 55 998
58 El Cardal INIA 05-05-2026 14:15 12,2 97 0,7 1,1 80 29 998
57 El Cardal INIA 05-05-2026 14:00 12,1 97,3 0,1 2,6 70 50 998
56 El Cardal INIA 05-05-2026 13:45 12,1 97,7 0,2 2 76 81 998
55 El Cardal INIA 05-05-2026 13:30 11,9 98 0,8 2,2 71 57 999
54 El Cardal INIA 05-05-2026 13:15 12 97,9 0,1 0,8 69 46 999
53 El Cardal INIA 05-05-2026 13:00 11,9 98,2 0,2 0,8 69 81 999
52 El Cardal INIA 05-05-2026 12:45 11,8 98,2 0,8 0,8 66 66 999
51 El Cardal INIA 05-05-2026 12:30 11,8 97,8 1,4 0 0 31 1000
50 El Cardal INIA 05-05-2026 12:15 11,7 97,5 1,8 0 0 23 1000
49 El Cardal INIA 05-05-2026 12:00 11,6 97,3 2,3 0 0 15 1000
48 El Cardal INIA 05-05-2026 11:45 11,7 96,8 2,4 0,2 124 12 999
47 El Cardal INIA 05-05-2026 11:30 11,6 97,5 0,3 2,3 78 22 1000
46 El Cardal INIA 05-05-2026 11:15 11,6 97,4 0,9 2,6 63 33 999
45 El Cardal INIA 05-05-2026 11:00 11,5 97,5 0,9 1,4 67 38 1000
44 El Cardal INIA 05-05-2026 10:45 11,4 97,3 0,9 0 0 24 1000
43 El Cardal INIA 05-05-2026 10:30 11,5 96,9 1,4 0,4 29 9 1001
42 El Cardal INIA 05-05-2026 10:15 11,6 96,2 1,4 0 0 12 1000
41 El Cardal INIA 05-05-2026 10:00 11,8 95,5 0,6 0 0 13 1000
40 El Cardal INIA 05-05-2026 09:45 11,8 94,7 0,5 0,3 37 29 1000
39 El Cardal INIA 05-05-2026 09:30 11,9 93,2 0,1 2,2 27 17 1000
38 El Cardal INIA 05-05-2026 09:15 11,8 93 0 2 36 29 1001
37 El Cardal INIA 05-05-2026 09:00 11,6 93,7 0 1,9 37 24 1001
36 El Cardal INIA 05-05-2026 08:45 11,4 94,2 0,2 2 33 36 1001
35 El Cardal INIA 05-05-2026 08:30 11,3 94,9 0,2 1,7 32 11 1001
34 El Cardal INIA 05-05-2026 08:15 11,3 94,5 0,5 1,8 27 3 1001
33 El Cardal INIA 05-05-2026 08:00 11,3 94,1 0,5 1,8 27 1 1001
32 El Cardal INIA 05-05-2026 07:45 11,4 93,2 0,3 1,4 32 0 1001
31 El Cardal INIA 05-05-2026 07:30 11,3 92,8 0,1 1,8 35 0 1001
30 El Cardal INIA 05-05-2026 07:15 11,3 93,1 0 2,1 29 0 1001
29 El Cardal INIA 05-05-2026 07:00 11,3 93,4 0 2,1 28 0 1001
28 El Cardal INIA 05-05-2026 06:45 11,2 94,5 0 1,8 37 0 1001
27 El Cardal INIA 05-05-2026 06:30 11,2 95,6 0 0,3 33 0 1001
26 El Cardal INIA 05-05-2026 06:15 11,2 96,2 0 0,7 34 0 1002
25 El Cardal INIA 05-05-2026 06:00 11,2 96,7 0 1,6 41 0 1002
24 El Cardal INIA 05-05-2026 05:45 11,2 97 0,1 1,7 42 0 1002
23 El Cardal INIA 05-05-2026 05:30 11,2 97,1 0 0,5 33 0 1002
22 El Cardal INIA 05-05-2026 05:15 11,2 97,6 0,1 0,4 38 0 1002
21 El Cardal INIA 05-05-2026 05:00 11,2 97,8 0,1 0 0 0 1002
20 El Cardal INIA 05-05-2026 04:45 11,2 98 0,1 0,3 37 0 1002
19 El Cardal INIA 05-05-2026 04:30 11,2 98,7 0 0,4 29 0 1002
18 El Cardal INIA 05-05-2026 04:15 11,1 98,9 0,3 0 42 0 1002
17 El Cardal INIA 05-05-2026 04:00 11 98,9 0,1 0,3 46 0 1002
16 El Cardal INIA 05-05-2026 03:45 11 98,9 0 0 29 0 1002
15 El Cardal INIA 05-05-2026 03:30 10,9 98,4 0,2 0 0 0 1003
14 El Cardal INIA 05-05-2026 03:15 10,9 97,8 0,9 0 0 0 1003
13 El Cardal INIA 05-05-2026 03:00 10,9 97,8 0,5 0 0 0 1003
12 El Cardal INIA 05-05-2026 02:45 10,8 97,7 0,5 0 0 0 1003
11 El Cardal INIA 05-05-2026 02:30 10,8 97,6 0,4 0 0 0 1003
10 El Cardal INIA 05-05-2026 02:15 10,8 97,6 0,1 0 0 0 1003
9 El Cardal INIA 05-05-2026 02:00 10,8 97,7 0 0 0 0 1003
8 El Cardal INIA 05-05-2026 01:45 10,8 97,7 0,2 0 0 0 1003
7 El Cardal INIA 05-05-2026 01:30 10,8 97,8 0,4 0 0 0 1003
6 El Cardal INIA 05-05-2026 01:15 10,8 97,7 0,4 0 0 0 1003
5 El Cardal INIA 05-05-2026 01:00 10,8 97,8 0,6 0 0 0 1003
4 El Cardal INIA 05-05-2026 00:45 10,8 97,7 0,3 0 0 0 1003
3 El Cardal INIA 05-05-2026 00:30 10,7 98 0,4 0 0 0 1003
2 El Cardal INIA 05-05-2026 00:15 10,6 97,9 0,3 0 0 0 1003
1 El Cardal INIA 05-05-2026 00:00 10,6 97,7 0,3 0 0 0 1003